createdAt,value
2023-04-02T00:01:41.354Z,3.76
2023-04-02T00:04:22.409Z,3.61
2023-04-02T00:07:26.083Z,3.89
2023-04-02T00:09:52.483Z,3.65
2023-04-02T00:12:19.501Z,3.65
2023-04-02T00:14:52.124Z,3.87
2023-04-02T00:17:20.933Z,3.64
2023-04-02T00:19:53.080Z,3.66
2023-04-02T00:22:22.139Z,3.83
2023-04-02T00:24:53.511Z,3.69
2023-04-02T00:27:20.553Z,3.53
2023-04-02T00:29:48.721Z,3.47
2023-04-02T00:32:22.232Z,3.37
2023-04-02T00:34:49.187Z,3.26
2023-04-02T00:37:17.657Z,3.63
2023-04-02T00:39:44.129Z,3.43
2023-04-02T00:42:13.034Z,3.36
2023-04-02T00:44:41.891Z,3.51
2023-04-02T00:47:15.491Z,3.42
2023-04-02T00:49:42.930Z,3.18
2023-04-02T00:52:11.445Z,3.14
2023-04-02T00:54:43.310Z,3.58
2023-04-02T00:57:17.061Z,3.50
2023-04-02T00:59:48.205Z,3.35
2023-04-02T01:02:25.479Z,3.85
2023-04-02T01:04:53.474Z,3.45
2023-04-02T01:07:29.048Z,3.64
2023-04-02T01:10:13.812Z,3.81
2023-04-02T01:12:50.918Z,3.31
2023-04-02T01:15:21.534Z,3.57
2023-04-02T01:18:00.425Z,3.56
2023-04-02T01:20:51.497Z,3.48
2023-04-02T01:23:24.681Z,3.46
2023-04-02T01:25:57.765Z,3.59
2023-04-02T01:28:32.345Z,3.40
2023-04-02T01:31:02.188Z,3.43
2023-04-02T01:33:32.280Z,3.85
2023-04-02T01:36:06.739Z,3.66
2023-04-02T01:38:40.571Z,3.55
2023-04-02T01:41:09.196Z,4.00
2023-04-02T01:43:43.108Z,3.83
2023-04-02T01:46:26.993Z,3.52
2023-04-02T01:48:53.858Z,3.41
2023-04-02T01:51:27.690Z,3.21
2023-04-02T01:53:54.524Z,3.31
2023-04-02T01:56:21.316Z,3.35
2023-04-02T01:58:48.880Z,3.36
2023-04-02T02:01:18.556Z,3.55
2023-04-02T02:03:46.596Z,3.07
2023-04-02T02:06:14.828Z,3.21
2023-04-02T02:08:46.892Z,3.28
2023-04-02T02:11:16.168Z,3.18
2023-04-02T02:13:46.463Z,3.39
2023-04-02T02:16:16.263Z,3.16
2023-04-02T02:18:43.479Z,3.18
2023-04-02T02:21:21.972Z,2.99
2023-04-02T02:23:48.652Z,3.09
2023-04-02T02:26:15.681Z,2.92
2023-04-02T02:28:46.307Z,3.09
2023-04-02T02:31:19.377Z,3.01
2023-04-02T02:33:48.919Z,2.94
2023-04-02T02:36:22.924Z,2.91
2023-04-02T02:38:54.664Z,2.96
2023-04-02T02:41:28.110Z,2.79
2023-04-02T02:44:01.729Z,2.70
2023-04-02T02:46:30.216Z,3.37
2023-04-02T02:48:59.427Z,3.08
2023-04-02T02:51:37.936Z,3.09
2023-04-02T02:54:05.422Z,2.91
2023-04-02T02:56:37.908Z,2.77
2023-04-02T02:59:08.040Z,3.01
2023-04-02T03:01:34.537Z,3.44
2023-04-02T03:04:01.558Z,2.99
2023-04-02T03:06:30.340Z,3.03
2023-04-02T03:09:04.009Z,3.26
2023-04-02T03:11:37.023Z,2.77
2023-04-02T03:14:14.574Z,3.15
2023-04-02T03:16:44.859Z,3.36
2023-04-02T03:19:23.538Z,3.31
2023-04-02T03:21:55.652Z,3.21
2023-04-02T03:24:29.455Z,3.41
2023-04-02T03:26:59.813Z,3.15
2023-04-02T03:29:29.240Z,3.08
2023-04-02T03:32:00.459Z,2.94
2023-04-02T03:34:31.552Z,2.78
2023-04-02T03:37:05.568Z,2.97
2023-04-02T03:39:37.182Z,2.99
2023-04-02T03:42:08.997Z,3.33
2023-04-02T03:44:44.062Z,3.50
2023-04-02T03:47:16.351Z,2.99
2023-04-02T03:49:48.000Z,2.83
2023-04-02T03:52:22.597Z,2.94
2023-04-02T03:54:53.344Z,2.95
2023-04-02T03:57:26.777Z,2.94
2023-04-02T04:00:02.119Z,3.18
2023-04-02T04:02:38.903Z,3.05
2023-04-02T04:05:07.852Z,2.97
2023-04-02T04:07:40.794Z,3.08
2023-04-02T04:10:14.617Z,2.70
2023-04-02T04:12:43.436Z,2.94
2023-04-02T04:15:19.011Z,2.97
2023-04-02T04:17:52.768Z,3.00
2023-04-02T04:20:20.554Z,3.09
2023-04-02T04:22:48.981Z,3.18
2023-04-02T04:25:21.536Z,2.90
2023-04-02T04:27:57.914Z,3.20
2023-04-02T04:30:29.658Z,3.31
2023-04-02T04:33:00.313Z,3.11
2023-04-02T04:35:30.580Z,3.01
2023-04-02T04:38:01.888Z,3.18
2023-04-02T04:40:31.646Z,3.47
2023-04-02T04:43:02.634Z,2.82
2023-04-02T04:45:38.077Z,3.23
2023-04-02T04:48:08.745Z,2.96
2023-04-02T04:50:46.178Z,3.15
2023-04-02T04:53:17.324Z,3.22
2023-04-02T04:55:44.896Z,2.99
2023-04-02T04:58:20.962Z,3.08
2023-04-02T05:00:56.529Z,2.96
2023-04-02T05:03:30.833Z,2.84
2023-04-02T05:06:03.421Z,3.09
2023-04-02T05:08:35.437Z,2.97
2023-04-02T05:11:06.131Z,2.91
2023-04-02T05:13:39.143Z,2.90
2023-04-02T05:16:14.971Z,3.13
2023-04-02T05:18:45.899Z,3.38
2023-04-02T05:21:19.556Z,2.92
2023-04-02T05:23:53.517Z,2.96
2023-04-02T05:26:24.745Z,3.16
2023-04-02T05:28:57.220Z,2.95
2023-04-02T05:31:27.830Z,2.67
2023-04-02T05:33:55.277Z,2.74
2023-04-02T05:36:24.743Z,2.78
2023-04-02T05:38:53.955Z,3.09
2023-04-02T05:41:25.964Z,3.01
2023-04-02T05:43:59.610Z,3.07
2023-04-02T05:46:30.552Z,2.91
2023-04-02T05:48:59.282Z,3.12
2023-04-02T05:51:31.517Z,3.06
2023-04-02T05:54:03.587Z,3.18
2023-04-02T05:56:37.320Z,3.07
2023-04-02T05:59:06.037Z,3.09
2023-04-02T06:01:39.073Z,3.28
2023-04-02T06:04:15.115Z,3.44
2023-04-02T06:06:47.387Z,3.69
2023-04-02T06:09:21.150Z,3.61
2023-04-02T06:11:49.842Z,3.52
2023-04-02T06:14:17.110Z,3.68
2023-04-02T06:16:45.154Z,3.19
2023-04-02T06:19:18.324Z,3.51
2023-04-02T06:21:45.691Z,3.38
2023-04-02T06:24:16.563Z,3.48
2023-04-02T06:26:47.807Z,3.22
2023-04-02T06:29:22.019Z,2.97
2023-04-02T06:31:51.347Z,3.35
2023-04-02T06:34:20.911Z,3.01
2023-04-02T06:36:48.349Z,3.15
2023-04-02T06:39:19.290Z,3.32
2023-04-02T06:41:46.426Z,3.22
2023-04-02T06:44:17.267Z,3.37
2023-04-02T06:46:47.521Z,3.39
2023-04-02T06:49:20.857Z,3.59
2023-04-02T06:51:50.872Z,3.43
2023-04-02T06:54:19.419Z,3.53
2023-04-02T06:56:47.622Z,3.72
2023-04-02T06:59:14.674Z,3.42
2023-04-02T07:01:45.355Z,3.66
2023-04-02T07:04:11.997Z,3.71
2023-04-02T07:06:38.377Z,3.62
2023-04-02T07:09:05.334Z,3.63
2023-04-02T07:11:33.037Z,3.69
2023-04-02T07:13:59.429Z,3.70
2023-04-02T07:16:27.672Z,3.51
2023-04-02T07:18:55.495Z,3.53
2023-04-02T07:21:22.145Z,3.86
2023-04-02T07:23:48.507Z,3.51
2023-04-02T07:26:17.921Z,3.23
2023-04-02T07:28:46.110Z,3.72
2023-04-02T07:31:16.151Z,3.27
2023-04-02T07:33:42.538Z,3.66
2023-04-02T07:36:15.954Z,3.94
2023-04-02T07:38:42.461Z,3.98
2023-04-02T07:41:08.970Z,4.05
2023-04-02T07:43:35.392Z,3.81
2023-04-02T07:46:03.817Z,3.94
2023-04-02T07:48:30.314Z,4.12
2023-04-02T07:50:56.793Z,3.76
2023-04-02T07:53:28.687Z,3.88
2023-04-02T07:55:55.680Z,4.03
2023-04-02T07:58:22.075Z,4.49
2023-04-02T08:00:48.570Z,3.90
2023-04-02T08:03:16.335Z,3.86
2023-04-02T08:05:42.952Z,4.10
2023-04-02T08:08:09.349Z,4.08
2023-04-02T08:10:35.810Z,4.13
2023-04-02T08:13:02.340Z,4.19
2023-04-02T08:15:28.726Z,4.00
2023-04-02T08:17:55.127Z,4.32
2023-04-02T08:20:22.907Z,3.66
2023-04-02T08:22:50.128Z,3.79
2023-04-02T08:25:17.033Z,4.00
2023-04-02T08:27:47.025Z,4.29
2023-04-02T08:30:14.508Z,4.25
2023-04-02T08:32:40.894Z,4.22
2023-04-02T08:35:07.978Z,3.82
2023-04-02T08:37:35.662Z,4.16
2023-04-02T08:40:02.074Z,4.28
2023-04-02T08:42:36.395Z,4.04
2023-04-02T08:45:24.894Z,4.72
2023-04-02T08:47:54.626Z,4.53
2023-04-02T08:50:27.939Z,4.47
2023-04-02T08:52:56.555Z,4.20
2023-04-02T08:55:31.453Z,4.26
2023-04-02T08:58:06.147Z,4.48
2023-04-02T09:00:37.947Z,4.33
2023-04-02T09:03:10.049Z,4.16
2023-04-02T09:05:40.745Z,4.09
2023-04-02T09:08:17.374Z,4.05
2023-04-02T09:10:50.657Z,4.46
2023-04-02T09:13:23.240Z,4.49
2023-04-02T09:15:52.517Z,4.04
2023-04-02T09:18:20.402Z,4.30
2023-04-02T09:20:47.042Z,4.33
2023-04-02T09:23:18.147Z,4.60
2023-04-02T09:25:57.445Z,4.46
2023-04-02T09:28:29.664Z,4.93
2023-04-02T09:31:01.684Z,4.47
2023-04-02T09:33:42.376Z,4.63
2023-04-02T09:36:19.285Z,4.85
2023-04-02T09:39:00.459Z,5.07
2023-04-02T09:41:29.362Z,5.51
2023-04-02T09:44:14.093Z,4.67
2023-04-02T09:46:51.886Z,4.82
2023-04-02T09:49:19.104Z,5.09
2023-04-02T09:51:45.547Z,5.27
2023-04-02T09:54:16.194Z,4.88
2023-04-02T09:57:01.069Z,5.34
2023-04-02T09:59:27.743Z,5.04
2023-04-02T10:01:59.700Z,4.87
2023-04-02T10:04:35.712Z,4.82
2023-04-02T10:07:03.282Z,4.51
2023-04-02T10:09:32.769Z,5.56
2023-04-02T10:12:01.259Z,4.85
2023-04-02T10:14:30.142Z,5.05
2023-04-02T10:17:00.470Z,5.13
2023-04-02T10:19:30.864Z,5.02
2023-04-02T10:21:58.646Z,5.11
2023-04-02T10:24:27.607Z,5.78
2023-04-02T10:27:06.656Z,5.67
2023-04-02T10:29:55.310Z,5.62
2023-04-02T10:32:28.311Z,5.27
2023-04-02T10:35:01.049Z,5.39
2023-04-02T10:37:56.890Z,5.90
2023-04-02T10:40:27.953Z,5.76
2023-04-02T10:43:06.987Z,5.96
2023-04-02T10:45:42.137Z,6.17
2023-04-02T10:48:16.704Z,5.64
2023-04-02T10:50:49.781Z,5.89
2023-04-02T10:53:18.306Z,6.27
2023-04-02T10:55:49.178Z,6.11
2023-04-02T10:58:23.007Z,5.78
2023-04-02T11:00:50.771Z,5.94
2023-04-02T11:03:27.424Z,6.17
2023-04-02T11:05:57.284Z,6.29
2023-04-02T11:08:26.642Z,6.22
2023-04-02T11:10:57.169Z,6.32
2023-04-02T11:13:28.492Z,6.34
2023-04-02T11:15:55.042Z,6.91
2023-04-02T11:18:28.487Z,7.08
2023-04-02T11:21:01.138Z,6.47
2023-04-02T11:23:30.696Z,5.93
2023-04-02T11:26:34.036Z,5.83
2023-04-02T11:29:14.676Z,5.77
2023-04-02T11:31:42.568Z,5.98
2023-04-02T11:34:13.202Z,5.85
2023-04-02T11:37:00.014Z,6.57
2023-04-02T11:39:46.720Z,6.21
2023-04-02T11:42:24.987Z,6.80
2023-04-02T11:44:53.030Z,6.96
2023-04-02T11:47:21.608Z,6.43
2023-04-02T11:50:27.250Z,6.84
2023-04-02T11:52:54.797Z,7.04
2023-04-02T11:55:25.601Z,6.95
2023-04-02T11:58:05.686Z,7.40
2023-04-02T12:01:03.643Z,7.53
2023-04-02T12:03:44.894Z,7.61
2023-04-02T12:06:19.385Z,7.95
2023-04-02T12:08:58.369Z,7.78
2023-04-02T12:11:33.237Z,7.53
2023-04-02T12:14:00.313Z,7.54
2023-04-02T12:16:32.707Z,7.66
2023-04-02T12:18:59.922Z,7.87
2023-04-02T12:21:28.085Z,7.98
2023-04-02T12:23:56.641Z,7.91
2023-04-02T12:26:27.575Z,7.58
2023-04-02T12:28:53.928Z,7.57
2023-04-02T12:31:24.234Z,7.61
2023-04-02T12:33:53.140Z,8.56
2023-04-02T12:36:21.220Z,9.31
2023-04-02T12:38:50.337Z,8.83
2023-04-02T12:41:22.595Z,8.82
2023-04-02T12:43:57.069Z,9.56
2023-04-02T12:46:23.512Z,8.94
2023-04-02T12:48:49.965Z,9.09
2023-04-02T12:51:17.734Z,8.75
2023-04-02T12:53:50.540Z,10.00
2023-04-02T12:56:19.504Z,9.64
2023-04-02T12:58:52.636Z,10.77
2023-04-02T13:01:20.926Z,8.62
2023-04-02T13:04:00.384Z,9.32
2023-04-02T13:06:28.894Z,8.88
2023-04-02T13:08:55.333Z,8.56
2023-04-02T13:11:22.006Z,8.23
2023-04-02T13:13:49.682Z,7.96
2023-04-02T13:16:28.753Z,7.94
2023-04-02T13:19:21.003Z,7.92
2023-04-02T13:21:49.161Z,8.42
2023-04-02T13:24:19.896Z,8.15
2023-04-02T13:26:46.439Z,8.32
2023-04-02T13:29:22.784Z,8.62
2023-04-02T13:31:50.120Z,8.23
2023-04-02T13:34:16.845Z,7.88
2023-04-02T13:36:43.419Z,8.12
2023-04-02T13:39:11.272Z,8.46
2023-04-02T13:41:40.858Z,8.59
2023-04-02T13:44:07.544Z,8.37
2023-04-02T13:46:34.972Z,8.82
2023-04-02T13:49:01.695Z,8.36
2023-04-02T13:51:35.539Z,8.39
2023-04-02T13:54:01.889Z,8.53
2023-04-02T13:56:29.552Z,8.38
2023-04-02T13:58:55.943Z,8.52
2023-04-02T14:01:24.399Z,9.19
2023-04-02T14:03:51.639Z,9.37
2023-04-02T14:06:25.043Z,9.58
2023-04-02T14:09:02.744Z,9.11
2023-04-02T14:11:43.113Z,9.04
2023-04-02T14:14:29.871Z,8.52
2023-04-02T14:17:08.910Z,8.76
2023-04-02T14:19:48.645Z,7.83
2023-04-02T14:22:30.310Z,8.31
2023-04-02T14:25:03.653Z,8.14
2023-04-02T14:27:40.231Z,8.78
2023-04-02T14:30:15.032Z,8.50
2023-04-02T14:32:52.368Z,8.08
2023-04-02T14:35:24.429Z,8.66
2023-04-02T14:38:02.773Z,9.03
2023-04-02T14:40:36.264Z,8.75
2023-04-02T14:43:11.281Z,9.35
2023-04-02T14:45:48.621Z,8.30
2023-04-02T14:48:27.740Z,7.91
2023-04-02T14:50:58.734Z,8.62
2023-04-02T14:53:30.629Z,8.57
2023-04-02T14:55:59.942Z,8.69
2023-04-02T14:58:33.629Z,8.67
2023-04-02T15:01:02.840Z,8.37
2023-04-02T15:03:34.989Z,8.55
2023-04-02T15:06:05.728Z,8.76
2023-04-02T15:08:37.148Z,8.99
2023-04-02T15:11:09.378Z,8.70
2023-04-02T15:13:42.165Z,8.85
2023-04-02T15:16:14.713Z,8.55
2023-04-02T15:18:41.176Z,8.34
2023-04-02T15:21:22.050Z,8.41
2023-04-02T15:23:55.943Z,8.39
2023-04-02T15:26:29.171Z,8.22
2023-04-02T15:29:03.299Z,8.34
2023-04-02T15:31:29.704Z,8.53
2023-04-02T15:34:11.296Z,8.65
2023-04-02T15:36:48.358Z,8.73
2023-04-02T15:39:38.164Z,8.95
2023-04-02T15:42:16.122Z,9.08
2023-04-02T15:44:56.318Z,9.33
2023-04-02T15:47:28.608Z,9.36
2023-04-02T15:50:05.834Z,8.48
2023-04-02T15:52:45.172Z,8.61
2023-04-02T15:55:21.862Z,8.24
2023-04-02T15:58:08.686Z,8.08
2023-04-02T16:00:45.687Z,8.16
2023-04-02T16:03:20.561Z,8.07
2023-04-02T16:05:59.483Z,7.97
2023-04-02T16:08:36.622Z,8.12
2023-04-02T16:11:03.007Z,8.00
2023-04-02T16:13:31.376Z,8.15
2023-04-02T16:16:05.260Z,8.15
2023-04-02T16:18:43.165Z,8.33
2023-04-02T16:21:15.141Z,8.76
2023-04-02T16:23:42.335Z,8.74
2023-04-02T16:26:23.817Z,8.76
2023-04-02T16:29:02.565Z,8.76
2023-04-02T16:31:38.148Z,8.60
2023-04-02T16:34:12.779Z,8.25
2023-04-02T16:36:48.865Z,8.07
2023-04-02T16:39:27.672Z,8.00
2023-04-02T16:42:03.744Z,7.74
2023-04-02T16:44:43.526Z,7.48
2023-04-02T16:47:27.515Z,7.55
2023-04-02T16:49:56.734Z,7.60
2023-04-02T16:52:37.793Z,7.56
2023-04-02T16:55:25.747Z,7.67
2023-04-02T16:58:00.104Z,8.06
2023-04-02T17:00:32.128Z,7.75
2023-04-02T17:03:14.964Z,7.86
2023-04-02T17:05:50.956Z,7.69
2023-04-02T17:08:22.285Z,7.64
2023-04-02T17:10:51.095Z,7.87
2023-04-02T17:13:26.986Z,7.75
2023-04-02T17:16:02.282Z,7.93
2023-04-02T17:18:32.404Z,8.30
2023-04-02T17:21:03.935Z,8.10
2023-04-02T17:23:49.457Z,8.06
2023-04-02T17:26:24.810Z,7.77
2023-04-02T17:28:51.696Z,7.78
2023-04-02T17:31:21.453Z,7.52
2023-04-02T17:33:49.782Z,7.66
2023-04-02T17:36:29.246Z,7.64
2023-04-02T17:39:08.127Z,7.44
2023-04-02T17:41:39.972Z,7.62
2023-04-02T17:44:30.339Z,7.43
2023-04-02T17:47:05.208Z,7.08
2023-04-02T17:49:43.045Z,7.61
2023-04-02T17:52:18.300Z,7.07
2023-04-02T17:54:51.924Z,7.04
2023-04-02T17:57:32.169Z,7.30
2023-04-02T18:00:10.594Z,7.12
2023-04-02T18:02:48.504Z,7.31
2023-04-02T18:05:27.841Z,7.20
2023-04-02T18:08:04.926Z,7.11
2023-04-02T18:10:38.213Z,7.10
2023-04-02T18:13:14.497Z,7.06
2023-04-02T18:15:59.388Z,7.04
2023-04-02T18:18:42.537Z,6.99
2023-04-02T18:21:19.716Z,6.93
2023-04-02T18:23:58.809Z,6.78
2023-04-02T18:26:37.929Z,7.14
2023-04-02T18:29:16.542Z,7.10
2023-04-02T18:31:50.133Z,6.78
2023-04-02T18:34:37.132Z,7.09
2023-04-02T18:37:16.759Z,7.03
2023-04-02T18:39:54.799Z,6.97
2023-04-02T18:42:38.653Z,6.88
2023-04-02T18:45:14.447Z,7.06
2023-04-02T18:47:48.798Z,7.11
2023-04-02T18:50:18.273Z,6.68
2023-04-02T18:52:48.042Z,6.77
2023-04-02T18:55:18.050Z,6.46
2023-04-02T18:57:48.538Z,6.42
2023-04-02T19:00:24.049Z,6.25
2023-04-02T19:02:55.084Z,6.21
2023-04-02T19:05:28.153Z,6.34
2023-04-02T19:08:02.380Z,6.24
2023-04-02T19:10:32.880Z,6.36
2023-04-02T19:12:59.294Z,6.17
2023-04-02T19:15:34.653Z,6.39
2023-04-02T19:18:10.907Z,6.46
2023-04-02T19:20:44.100Z,6.23
2023-04-02T19:23:25.614Z,6.18
2023-04-02T19:25:59.980Z,6.09
2023-04-02T19:28:32.384Z,5.94
2023-04-02T19:31:13.316Z,6.09
2023-04-02T19:33:49.775Z,5.90
2023-04-02T19:36:35.311Z,5.66
2023-04-02T19:39:24.499Z,5.94
2023-04-02T19:41:52.864Z,5.90
2023-04-02T19:44:20.638Z,5.37
2023-04-02T19:46:47.574Z,5.51
2023-04-02T19:49:16.650Z,5.46
2023-04-02T19:51:43.048Z,5.24
2023-04-02T19:54:11.224Z,5.52
2023-04-02T19:56:38.000Z,5.47
2023-04-02T19:59:17.066Z,5.52
2023-04-02T20:01:44.736Z,5.59
2023-04-02T20:04:11.265Z,5.31
2023-04-02T20:06:37.739Z,5.45
2023-04-02T20:09:04.177Z,5.27
2023-04-02T20:11:31.861Z,5.30
2023-04-02T20:13:58.212Z,5.24
2023-04-02T20:16:24.646Z,5.49
2023-04-02T20:18:51.322Z,5.11
2023-04-02T20:21:17.849Z,5.36
2023-04-02T20:23:44.814Z,5.20
2023-04-02T20:26:11.787Z,5.09
2023-04-02T20:28:39.548Z,4.95
2023-04-02T20:31:08.580Z,5.17
2023-04-02T20:33:35.151Z,5.05
2023-04-02T20:36:04.036Z,5.01
2023-04-02T20:38:31.516Z,4.91
2023-04-02T20:40:58.711Z,4.53
2023-04-02T20:43:25.202Z,4.68
2023-04-02T20:45:57.399Z,4.69
2023-04-02T20:48:24.628Z,4.90
2023-04-02T20:50:51.085Z,4.77
2023-04-02T20:53:17.616Z,4.60
2023-04-02T20:55:44.057Z,4.54
2023-04-02T20:58:10.404Z,4.70
2023-04-02T21:00:37.121Z,4.84
2023-04-02T21:03:05.268Z,4.70
2023-04-02T21:05:31.751Z,4.76
2023-04-02T21:07:58.234Z,4.71
2023-04-02T21:10:24.626Z,4.27
2023-04-02T21:12:50.995Z,4.55
2023-04-02T21:15:18.330Z,4.37
2023-04-02T21:17:44.752Z,4.38
2023-04-02T21:20:12.854Z,4.36
2023-04-02T21:22:39.264Z,4.46
2023-04-02T21:25:06.349Z,4.55
2023-04-02T21:27:32.721Z,4.32
2023-04-02T21:29:59.149Z,4.55
2023-04-02T21:32:25.708Z,4.47
2023-04-02T21:34:52.136Z,4.26
2023-04-02T21:37:19.833Z,4.12
2023-04-02T21:39:46.237Z,4.11
2023-04-02T21:42:12.674Z,4.15
2023-04-02T21:44:39.092Z,4.27
2023-04-02T21:47:05.662Z,4.28
2023-04-02T21:49:32.298Z,4.02
2023-04-02T21:51:59.041Z,3.80
2023-04-02T21:54:26.717Z,3.86
2023-04-02T21:56:53.107Z,3.98
2023-04-02T21:59:19.559Z,3.85
2023-04-02T22:01:47.566Z,3.67
2023-04-02T22:04:17.066Z,3.49
2023-04-02T22:06:44.703Z,3.76
2023-04-02T22:09:13.740Z,3.77
2023-04-02T22:11:44.576Z,3.67
2023-04-02T22:14:11.240Z,3.81
2023-04-02T22:16:38.287Z,3.78
2023-04-02T22:19:07.773Z,3.88
2023-04-02T22:21:35.690Z,3.51
2023-04-02T22:24:03.824Z,3.70
2023-04-02T22:26:31.301Z,3.66
2023-04-02T22:28:59.524Z,3.90
2023-04-02T22:31:27.880Z,3.29
2023-04-02T22:33:55.826Z,3.31
2023-04-02T22:36:23.574Z,3.50
2023-04-02T22:38:50.249Z,3.52
2023-04-02T22:41:19.236Z,3.41
2023-04-02T22:43:46.128Z,3.50
2023-04-02T22:46:15.983Z,3.39
2023-04-02T22:48:42.995Z,3.48
2023-04-02T22:51:11.253Z,3.25
2023-04-02T22:53:38.275Z,3.37
2023-04-02T22:56:07.159Z,3.58
2023-04-02T22:58:33.617Z,3.70
2023-04-02T23:01:03.600Z,3.77
2023-04-02T23:03:31.473Z,3.75
2023-04-02T23:05:58.988Z,3.62
2023-04-02T23:08:25.457Z,3.28
2023-04-02T23:10:52.151Z,3.27
2023-04-02T23:13:18.510Z,3.49
2023-04-02T23:15:44.928Z,3.38
2023-04-02T23:18:11.367Z,3.14
2023-04-02T23:20:40.258Z,2.99
2023-04-02T23:23:06.655Z,3.34
2023-04-02T23:25:33.048Z,2.94
2023-04-02T23:27:59.487Z,2.72
2023-04-02T23:30:25.846Z,2.67
2023-04-02T23:32:52.284Z,2.59
2023-04-02T23:35:18.647Z,2.64
2023-04-02T23:37:48.472Z,2.93
2023-04-02T23:40:15.159Z,2.75
2023-04-02T23:42:41.547Z,2.86
2023-04-02T23:45:09.322Z,2.66
2023-04-02T23:47:35.737Z,2.69
2023-04-02T23:50:02.072Z,2.97
2023-04-02T23:52:28.439Z,2.43
2023-04-02T23:54:56.161Z,2.67
2023-04-02T23:57:22.580Z,2.58
2023-04-02T23:59:48.967Z,2.84
